sensor_id;sensor_type;location;lat;lon;timestamp;P1;durP1;ratioP1;P2;durP2;ratioP2
53261;SDS011;39658;51.090;-1.786;2023-03-21T00:23:12;20.33;;;5.57;;
53261;SDS011;39658;51.090;-1.786;2023-03-21T00:25:40;28.20;;;5.30;;
53261;SDS011;39658;51.090;-1.786;2023-03-21T00:28:35;27.48;;;6.20;;
53261;SDS011;39658;51.090;-1.786;2023-03-21T00:31:03;22.15;;;5.32;;
53261;SDS011;39658;51.090;-1.786;2023-03-21T00:33:30;21.15;;;5.25;;
53261;SDS011;39658;51.090;-1.786;2023-03-21T00:35:58;23.92;;;5.60;;
53261;SDS011;39658;51.090;-1.786;2023-03-21T00:38:27;22.17;;;5.95;;
53261;SDS011;39658;51.090;-1.786;2023-03-21T00:40:54;19.77;;;5.60;;
53261;SDS011;39658;51.090;-1.786;2023-03-21T00:43:21;24.25;;;5.70;;
53261;SDS011;39658;51.090;-1.786;2023-03-21T00:45:54;29.17;;;6.40;;
53261;SDS011;39658;51.090;-1.786;2023-03-21T00:48:22;20.52;;;5.15;;
53261;SDS011;39658;51.090;-1.786;2023-03-21T00:50:50;16.52;;;5.22;;
53261;SDS011;39658;51.090;-1.786;2023-03-21T00:53:18;24.15;;;5.65;;
53261;SDS011;39658;51.090;-1.786;2023-03-21T00:55:46;19.70;;;4.75;;
53261;SDS011;39658;51.090;-1.786;2023-03-21T00:58:13;24.70;;;4.88;;
53261;SDS011;39658;51.090;-1.786;2023-03-21T01:00:40;19.35;;;4.57;;
53261;SDS011;39658;51.090;-1.786;2023-03-21T01:03:09;21.52;;;5.00;;
53261;SDS011;39658;51.090;-1.786;2023-03-21T01:05:38;17.77;;;4.75;;
53261;SDS011;39658;51.090;-1.786;2023-03-21T01:08:26;16.52;;;4.32;;
53261;SDS011;39658;51.090;-1.786;2023-03-21T01:10:54;18.88;;;4.85;;
53261;SDS011;39658;51.090;-1.786;2023-03-21T01:13:23;19.05;;;4.90;;
53261;SDS011;39658;51.090;-1.786;2023-03-21T01:15:51;23.08;;;4.45;;
53261;SDS011;39658;51.090;-1.786;2023-03-21T01:18:21;28.65;;;5.28;;
53261;SDS011;39658;51.090;-1.786;2023-03-21T01:20:49;15.05;;;4.60;;
53261;SDS011;39658;51.090;-1.786;2023-03-21T01:23:16;18.60;;;4.70;;
53261;SDS011;39658;51.090;-1.786;2023-03-21T01:25:43;19.42;;;5.53;;
53261;SDS011;39658;51.090;-1.786;2023-03-21T01:28:14;20.92;;;5.70;;
53261;SDS011;39658;51.090;-1.786;2023-03-21T01:30:43;14.65;;;5.38;;
53261;SDS011;39658;51.090;-1.786;2023-03-21T01:33:11;16.05;;;5.00;;
53261;SDS011;39658;51.090;-1.786;2023-03-21T01:35:38;18.77;;;5.32;;
53261;SDS011;39658;51.090;-1.786;2023-03-21T01:38:04;25.52;;;5.25;;
53261;SDS011;39658;51.090;-1.786;2023-03-21T01:40:31;28.83;;;6.03;;
53261;SDS011;39658;51.090;-1.786;2023-03-21T01:42:58;22.90;;;5.30;;
53261;SDS011;39658;51.090;-1.786;2023-03-21T01:48:30;19.25;;;4.95;;
53261;SDS011;39658;51.090;-1.786;2023-03-21T01:50:59;24.42;;;5.05;;
53261;SDS011;39658;51.090;-1.786;2023-03-21T01:53:27;20.20;;;5.03;;
53261;SDS011;39658;51.090;-1.786;2023-03-21T01:55:56;14.43;;;4.35;;
53261;SDS011;39658;51.090;-1.786;2023-03-21T01:58:23;24.77;;;4.75;;
53261;SDS011;39658;51.090;-1.786;2023-03-21T02:00:50;11.40;;;3.33;;
53261;SDS011;39658;51.090;-1.786;2023-03-21T02:03:19;8.95;;;3.58;;
53261;SDS011;39658;51.090;-1.786;2023-03-21T02:05:50;20.30;;;2.95;;
53261;SDS011;39658;51.090;-1.786;2023-03-21T02:08:19;12.00;;;3.28;;
53261;SDS011;39658;51.090;-1.786;2023-03-21T02:10:47;14.75;;;2.60;;
53261;SDS011;39658;51.090;-1.786;2023-03-21T02:13:14;12.50;;;3.10;;
53261;SDS011;39658;51.090;-1.786;2023-03-21T02:15:42;11.30;;;3.35;;
53261;SDS011;39658;51.090;-1.786;2023-03-21T02:18:15;10.50;;;2.55;;
53261;SDS011;39658;51.090;-1.786;2023-03-21T02:21:01;13.60;;;3.03;;
53261;SDS011;39658;51.090;-1.786;2023-03-21T02:23:55;10.20;;;2.85;;
53261;SDS011;39658;51.090;-1.786;2023-03-21T02:26:53;8.80;;;2.28;;
53261;SDS011;39658;51.090;-1.786;2023-03-21T02:29:31;7.57;;;3.08;;
53261;SDS011;39658;51.090;-1.786;2023-03-21T02:32:22;9.05;;;2.55;;
53261;SDS011;39658;51.090;-1.786;2023-03-21T02:35:04;11.85;;;2.60;;
53261;SDS011;39658;51.090;-1.786;2023-03-21T02:37:50;12.75;;;2.75;;
53261;SDS011;39658;51.090;-1.786;2023-03-21T02:40:24;12.38;;;2.22;;
53261;SDS011;39658;51.090;-1.786;2023-03-21T02:42:58;11.45;;;2.38;;
53261;SDS011;39658;51.090;-1.786;2023-03-21T02:45:31;11.40;;;2.47;;
53261;SDS011;39658;51.090;-1.786;2023-03-21T02:48:05;10.05;;;3.15;;
53261;SDS011;39658;51.090;-1.786;2023-03-21T02:50:37;8.98;;;2.15;;
53261;SDS011;39658;51.090;-1.786;2023-03-21T02:53:10;10.52;;;3.03;;
53261;SDS011;39658;51.090;-1.786;2023-03-21T02:55:41;13.90;;;2.95;;
53261;SDS011;39658;51.090;-1.786;2023-03-21T02:58:10;14.30;;;3.10;;
53261;SDS011;39658;51.090;-1.786;2023-03-21T03:00:38;11.10;;;3.08;;
53261;SDS011;39658;51.090;-1.786;2023-03-21T03:03:07;16.58;;;4.25;;
53261;SDS011;39658;51.090;-1.786;2023-03-21T03:05:34;12.88;;;3.92;;
53261;SDS011;39658;51.090;-1.786;2023-03-21T03:08:14;16.13;;;3.67;;
53261;SDS011;39658;51.090;-1.786;2023-03-21T03:10:52;15.93;;;3.92;;
53261;SDS011;39658;51.090;-1.786;2023-03-21T03:13:44;16.25;;;5.13;;
53261;SDS011;39658;51.090;-1.786;2023-03-21T03:16:27;22.42;;;4.35;;
53261;SDS011;39658;51.090;-1.786;2023-03-21T03:19:01;10.55;;;3.60;;
53261;SDS011;39658;51.090;-1.786;2023-03-21T03:21:31;20.85;;;4.47;;
53261;SDS011;39658;51.090;-1.786;2023-03-21T03:24:08;15.98;;;4.85;;
53261;SDS011;39658;51.090;-1.786;2023-03-21T03:26:37;12.52;;;3.30;;
53261;SDS011;39658;51.090;-1.786;2023-03-21T03:29:06;18.80;;;4.18;;
53261;SDS011;39658;51.090;-1.786;2023-03-21T03:31:38;16.88;;;4.55;;
53261;SDS011;39658;51.090;-1.786;2023-03-21T03:34:12;18.27;;;3.40;;
53261;SDS011;39658;51.090;-1.786;2023-03-21T03:36:45;15.05;;;3.10;;
53261;SDS011;39658;51.090;-1.786;2023-03-21T03:39:21;12.90;;;2.33;;
53261;SDS011;39658;51.090;-1.786;2023-03-21T03:41:56;13.10;;;3.60;;
53261;SDS011;39658;51.090;-1.786;2023-03-21T03:44:27;14.40;;;3.95;;
53261;SDS011;39658;51.090;-1.786;2023-03-21T03:46:55;15.45;;;3.13;;
53261;SDS011;39658;51.090;-1.786;2023-03-21T03:49:27;18.27;;;3.30;;
53261;SDS011;39658;51.090;-1.786;2023-03-21T03:51:59;14.23;;;3.25;;
53261;SDS011;39658;51.090;-1.786;2023-03-21T03:54:31;16.70;;;3.83;;
53261;SDS011;39658;51.090;-1.786;2023-03-21T03:57:02;23.60;;;4.40;;
53261;SDS011;39658;51.090;-1.786;2023-03-21T03:59:30;12.55;;;3.60;;
53261;SDS011;39658;51.090;-1.786;2023-03-21T04:01:59;19.08;;;3.72;;
53261;SDS011;39658;51.090;-1.786;2023-03-21T04:04:26;18.55;;;3.92;;
53261;SDS011;39658;51.090;-1.786;2023-03-21T04:06:53;15.07;;;4.18;;
53261;SDS011;39658;51.090;-1.786;2023-03-21T04:09:20;24.67;;;4.35;;
53261;SDS011;39658;51.090;-1.786;2023-03-21T04:11:48;23.27;;;4.32;;
53261;SDS011;39658;51.090;-1.786;2023-03-21T04:14:15;21.60;;;3.88;;
53261;SDS011;39658;51.090;-1.786;2023-03-21T04:16:42;21.50;;;3.97;;
53261;SDS011;39658;51.090;-1.786;2023-03-21T04:19:09;19.90;;;4.18;;
53261;SDS011;39658;51.090;-1.786;2023-03-21T04:21:36;15.60;;;3.30;;
53261;SDS011;39658;51.090;-1.786;2023-03-21T04:24:03;12.85;;;3.03;;
53261;SDS011;39658;51.090;-1.786;2023-03-21T04:26:31;14.18;;;2.85;;
53261;SDS011;39658;51.090;-1.786;2023-03-21T04:29:01;14.48;;;3.20;;
53261;SDS011;39658;51.090;-1.786;2023-03-21T04:31:29;11.10;;;3.30;;
53261;SDS011;39658;51.090;-1.786;2023-03-21T04:33:58;15.50;;;3.53;;
53261;SDS011;39658;51.090;-1.786;2023-03-21T04:36:25;16.75;;;3.83;;
53261;SDS011;39658;51.090;-1.786;2023-03-21T04:38:57;11.80;;;2.92;;
53261;SDS011;39658;51.090;-1.786;2023-03-21T04:41:25;14.85;;;3.88;;
53261;SDS011;39658;51.090;-1.786;2023-03-21T04:43:52;12.48;;;3.28;;
53261;SDS011;39658;51.090;-1.786;2023-03-21T04:46:22;8.32;;;2.65;;
53261;SDS011;39658;51.090;-1.786;2023-03-21T04:48:49;8.48;;;3.30;;
53261;SDS011;39658;51.090;-1.786;2023-03-21T04:51:15;10.75;;;3.40;;
53261;SDS011;39658;51.090;-1.786;2023-03-21T04:53:42;15.43;;;3.58;;
53261;SDS011;39658;51.090;-1.786;2023-03-21T04:56:11;12.45;;;2.88;;
53261;SDS011;39658;51.090;-1.786;2023-03-21T04:58:38;7.78;;;2.28;;
53261;SDS011;39658;51.090;-1.786;2023-03-21T05:01:05;13.25;;;3.33;;
53261;SDS011;39658;51.090;-1.786;2023-03-21T05:03:34;10.57;;;3.17;;
53261;SDS011;39658;51.090;-1.786;2023-03-21T05:06:04;11.55;;;3.10;;
53261;SDS011;39658;51.090;-1.786;2023-03-21T05:08:32;11.82;;;2.88;;
53261;SDS011;39658;51.090;-1.786;2023-03-21T05:10:59;14.30;;;2.72;;
53261;SDS011;39658;51.090;-1.786;2023-03-21T05:13:26;8.65;;;2.17;;
53261;SDS011;39658;51.090;-1.786;2023-03-21T05:15:53;12.23;;;2.60;;
53261;SDS011;39658;51.090;-1.786;2023-03-21T05:18:20;6.22;;;2.15;;
53261;SDS011;39658;51.090;-1.786;2023-03-21T05:20:50;9.57;;;2.67;;
53261;SDS011;39658;51.090;-1.786;2023-03-21T05:23:19;9.32;;;2.70;;
53261;SDS011;39658;51.090;-1.786;2023-03-21T05:25:46;11.30;;;3.17;;
53261;SDS011;39658;51.090;-1.786;2023-03-21T05:28:14;10.38;;;2.50;;
53261;SDS011;39658;51.090;-1.786;2023-03-21T05:30:42;10.90;;;2.72;;
53261;SDS011;39658;51.090;-1.786;2023-03-21T05:33:10;6.82;;;2.13;;
53261;SDS011;39658;51.090;-1.786;2023-03-21T05:35:37;10.00;;;3.13;;
53261;SDS011;39658;51.090;-1.786;2023-03-21T05:38:05;11.85;;;3.75;;
53261;SDS011;39658;51.090;-1.786;2023-03-21T05:40:32;15.85;;;4.10;;
53261;SDS011;39658;51.090;-1.786;2023-03-21T05:42:58;15.07;;;4.15;;
53261;SDS011;39658;51.090;-1.786;2023-03-21T05:45:25;9.55;;;3.63;;
53261;SDS011;39658;51.090;-1.786;2023-03-21T05:47:52;10.35;;;3.50;;
53261;SDS011;39658;51.090;-1.786;2023-03-21T05:50:19;12.65;;;3.40;;
53261;SDS011;39658;51.090;-1.786;2023-03-21T05:52:46;17.17;;;4.00;;
53261;SDS011;39658;51.090;-1.786;2023-03-21T05:55:14;14.20;;;3.10;;
53261;SDS011;39658;51.090;-1.786;2023-03-21T05:57:41;27.85;;;4.45;;
53261;SDS011;39658;51.090;-1.786;2023-03-21T06:00:08;16.38;;;3.03;;
53261;SDS011;39658;51.090;-1.786;2023-03-21T06:02:36;16.98;;;3.63;;
53261;SDS011;39658;51.090;-1.786;2023-03-21T06:05:04;15.45;;;3.28;;
53261;SDS011;39658;51.090;-1.786;2023-03-21T06:07:31;8.30;;;2.45;;
53261;SDS011;39658;51.090;-1.786;2023-03-21T06:09:58;7.75;;;2.80;;
53261;SDS011;39658;51.090;-1.786;2023-03-21T06:12:26;8.88;;;3.20;;
53261;SDS011;39658;51.090;-1.786;2023-03-21T06:14:53;10.50;;;2.10;;
53261;SDS011;39658;51.090;-1.786;2023-03-21T06:17:20;17.83;;;5.35;;
53261;SDS011;39658;51.090;-1.786;2023-03-21T06:19:46;13.20;;;3.03;;
53261;SDS011;39658;51.090;-1.786;2023-03-21T06:22:13;17.67;;;3.65;;
53261;SDS011;39658;51.090;-1.786;2023-03-21T06:24:40;17.27;;;4.00;;
53261;SDS011;39658;51.090;-1.786;2023-03-21T06:27:07;18.55;;;2.83;;
53261;SDS011;39658;51.090;-1.786;2023-03-21T06:29:35;18.98;;;4.88;;
53261;SDS011;39658;51.090;-1.786;2023-03-21T06:32:02;18.58;;;3.80;;
53261;SDS011;39658;51.090;-1.786;2023-03-21T06:34:31;14.43;;;4.15;;
53261;SDS011;39658;51.090;-1.786;2023-03-21T06:36:58;25.42;;;4.40;;
53261;SDS011;39658;51.090;-1.786;2023-03-21T06:39:25;23.73;;;4.68;;
53261;SDS011;39658;51.090;-1.786;2023-03-21T06:41:51;23.63;;;4.53;;
53261;SDS011;39658;51.090;-1.786;2023-03-21T06:44:18;19.25;;;3.75;;
53261;SDS011;39658;51.090;-1.786;2023-03-21T06:46:47;18.58;;;4.30;;
53261;SDS011;39658;51.090;-1.786;2023-03-21T06:49:14;30.27;;;5.15;;
53261;SDS011;39658;51.090;-1.786;2023-03-21T06:51:41;22.67;;;4.57;;
53261;SDS011;39658;51.090;-1.786;2023-03-21T06:54:08;30.60;;;4.97;;
53261;SDS011;39658;51.090;-1.786;2023-03-21T06:56:34;22.60;;;5.70;;
53261;SDS011;39658;51.090;-1.786;2023-03-21T06:59:01;33.42;;;5.20;;
53261;SDS011;39658;51.090;-1.786;2023-03-21T07:01:29;20.63;;;3.80;;
53261;SDS011;39658;51.090;-1.786;2023-03-21T07:03:57;32.65;;;4.78;;
53261;SDS011;39658;51.090;-1.786;2023-03-21T07:06:24;21.50;;;4.45;;
53261;SDS011;39658;51.090;-1.786;2023-03-21T07:08:52;25.38;;;4.55;;
53261;SDS011;39658;51.090;-1.786;2023-03-21T07:11:20;39.85;;;3.50;;
53261;SDS011;39658;51.090;-1.786;2023-03-21T07:13:47;20.73;;;3.95;;
53261;SDS011;39658;51.090;-1.786;2023-03-21T07:16:15;14.32;;;3.97;;
53261;SDS011;39658;51.090;-1.786;2023-03-21T07:18:43;17.60;;;3.33;;
53261;SDS011;39658;51.090;-1.786;2023-03-21T07:21:12;27.50;;;4.80;;
53261;SDS011;39658;51.090;-1.786;2023-03-21T07:23:39;25.33;;;5.22;;
53261;SDS011;39658;51.090;-1.786;2023-03-21T07:26:06;34.60;;;4.60;;
53261;SDS011;39658;51.090;-1.786;2023-03-21T07:28:33;25.10;;;4.72;;
53261;SDS011;39658;51.090;-1.786;2023-03-21T07:31:01;24.80;;;4.97;;
53261;SDS011;39658;51.090;-1.786;2023-03-21T07:33:29;7.60;;;2.20;;
53261;SDS011;39658;51.090;-1.786;2023-03-21T07:35:57;18.00;;;3.75;;
53261;SDS011;39658;51.090;-1.786;2023-03-21T07:38:26;16.52;;;3.92;;
53261;SDS011;39658;51.090;-1.786;2023-03-21T07:40:55;16.50;;;3.42;;
53261;SDS011;39658;51.090;-1.786;2023-03-21T07:43:24;18.85;;;3.78;;
53261;SDS011;39658;51.090;-1.786;2023-03-21T07:45:55;21.33;;;3.17;;
53261;SDS011;39658;51.090;-1.786;2023-03-21T07:48:22;31.45;;;3.78;;
53261;SDS011;39658;51.090;-1.786;2023-03-21T07:50:49;17.85;;;3.38;;
53261;SDS011;39658;51.090;-1.786;2023-03-21T07:53:15;16.60;;;3.25;;
53261;SDS011;39658;51.090;-1.786;2023-03-21T07:55:44;26.02;;;4.70;;
53261;SDS011;39658;51.090;-1.786;2023-03-21T07:58:14;18.90;;;4.07;;
53261;SDS011;39658;51.090;-1.786;2023-03-21T08:00:41;25.08;;;3.22;;
53261;SDS011;39658;51.090;-1.786;2023-03-21T08:03:08;18.35;;;3.28;;
53261;SDS011;39658;51.090;-1.786;2023-03-21T08:05:36;18.58;;;2.85;;
53261;SDS011;39658;51.090;-1.786;2023-03-21T08:08:03;19.38;;;2.75;;
53261;SDS011;39658;51.090;-1.786;2023-03-21T08:10:31;14.30;;;2.65;;
53261;SDS011;39658;51.090;-1.786;2023-03-21T08:12:59;10.75;;;1.98;;
53261;SDS011;39658;51.090;-1.786;2023-03-21T08:15:26;9.60;;;2.28;;
53261;SDS011;39658;51.090;-1.786;2023-03-21T08:17:53;12.88;;;3.30;;
53261;SDS011;39658;51.090;-1.786;2023-03-21T08:20:21;14.27;;;3.42;;
53261;SDS011;39658;51.090;-1.786;2023-03-21T08:22:48;12.57;;;4.10;;
53261;SDS011;39658;51.090;-1.786;2023-03-21T08:25:18;12.73;;;2.30;;
53261;SDS011;39658;51.090;-1.786;2023-03-21T08:27:46;14.32;;;2.85;;
53261;SDS011;39658;51.090;-1.786;2023-03-21T08:30:15;23.00;;;3.55;;
53261;SDS011;39658;51.090;-1.786;2023-03-21T08:32:43;22.25;;;4.05;;
53261;SDS011;39658;51.090;-1.786;2023-03-21T08:35:12;24.52;;;3.58;;
53261;SDS011;39658;51.090;-1.786;2023-03-21T08:40:09;20.83;;;2.55;;
53261;SDS011;39658;51.090;-1.786;2023-03-21T08:42:38;21.80;;;3.63;;
53261;SDS011;39658;51.090;-1.786;2023-03-21T08:45:06;22.30;;;3.35;;
53261;SDS011;39658;51.090;-1.786;2023-03-21T08:47:35;31.27;;;3.58;;
53261;SDS011;39658;51.090;-1.786;2023-03-21T08:50:02;24.48;;;2.72;;
53261;SDS011;39658;51.090;-1.786;2023-03-21T08:52:30;22.15;;;2.67;;
53261;SDS011;39658;51.090;-1.786;2023-03-21T08:54:58;6.60;;;1.50;;
53261;SDS011;39658;51.090;-1.786;2023-03-21T08:57:26;14.40;;;1.90;;
53261;SDS011;39658;51.090;-1.786;2023-03-21T08:59:53;13.50;;;2.13;;
53261;SDS011;39658;51.090;-1.786;2023-03-21T09:02:19;10.02;;;2.40;;
53261;SDS011;39658;51.090;-1.786;2023-03-21T09:04:48;18.98;;;2.90;;
53261;SDS011;39658;51.090;-1.786;2023-03-21T09:07:17;20.67;;;2.97;;
53261;SDS011;39658;51.090;-1.786;2023-03-21T09:09:44;10.35;;;2.35;;
53261;SDS011;39658;51.090;-1.786;2023-03-21T09:12:11;16.73;;;2.25;;
53261;SDS011;39658;51.090;-1.786;2023-03-21T09:14:38;11.98;;;2.05;;
53261;SDS011;39658;51.090;-1.786;2023-03-21T09:17:05;16.08;;;2.65;;
53261;SDS011;39658;51.090;-1.786;2023-03-21T09:19:32;18.55;;;2.17;;
53261;SDS011;39658;51.090;-1.786;2023-03-21T09:22:00;9.57;;;1.50;;
53261;SDS011;39658;51.090;-1.786;2023-03-21T09:24:29;11.35;;;1.40;;
53261;SDS011;39658;51.090;-1.786;2023-03-21T09:26:56;15.18;;;1.63;;
53261;SDS011;39658;51.090;-1.786;2023-03-21T09:29:23;15.32;;;1.70;;
53261;SDS011;39658;51.090;-1.786;2023-03-21T09:31:50;4.65;;;0.77;;
53261;SDS011;39658;51.090;-1.786;2023-03-21T09:34:18;16.58;;;1.92;;
53261;SDS011;39658;51.090;-1.786;2023-03-21T09:36:45;12.57;;;1.48;;
53261;SDS011;39658;51.090;-1.786;2023-03-21T09:39:20;12.15;;;2.42;;
53261;SDS011;39658;51.090;-1.786;2023-03-21T09:41:51;13.35;;;1.95;;
53261;SDS011;39658;51.090;-1.786;2023-03-21T09:44:36;9.48;;;1.50;;
53261;SDS011;39658;51.090;-1.786;2023-03-21T09:47:13;8.52;;;1.15;;
53261;SDS011;39658;51.090;-1.786;2023-03-21T09:49:45;8.75;;;1.30;;
53261;SDS011;39658;51.090;-1.786;2023-03-21T09:52:17;6.57;;;0.98;;
53261;SDS011;39658;51.090;-1.786;2023-03-21T09:54:49;5.60;;;0.93;;
53261;SDS011;39658;51.090;-1.786;2023-03-21T09:57:20;6.53;;;1.35;;
53261;SDS011;39658;51.090;-1.786;2023-03-21T09:59:55;10.32;;;1.77;;
53261;SDS011;39658;51.090;-1.786;2023-03-21T10:02:32;6.18;;;2.10;;
53261;SDS011;39658;51.090;-1.786;2023-03-21T10:05:05;6.65;;;1.58;;
53261;SDS011;39658;51.090;-1.786;2023-03-21T10:07:39;8.82;;;1.00;;
53261;SDS011;39658;51.090;-1.786;2023-03-21T10:10:15;5.63;;;1.35;;
53261;SDS011;39658;51.090;-1.786;2023-03-21T10:12:44;11.40;;;1.38;;
53261;SDS011;39658;51.090;-1.786;2023-03-21T10:15:14;14.88;;;1.40;;
53261;SDS011;39658;51.090;-1.786;2023-03-21T10:17:46;8.82;;;1.38;;
53261;SDS011;39658;51.090;-1.786;2023-03-21T10:20:19;1.80;;;0.50;;
53261;SDS011;39658;51.090;-1.786;2023-03-21T10:22:48;5.90;;;1.08;;
53261;SDS011;39658;51.090;-1.786;2023-03-21T10:25:19;7.07;;;1.33;;
53261;SDS011;39658;51.090;-1.786;2023-03-21T10:27:47;8.05;;;0.90;;
53261;SDS011;39658;51.090;-1.786;2023-03-21T10:30:19;10.88;;;1.50;;
53261;SDS011;39658;51.090;-1.786;2023-03-21T10:32:51;6.45;;;0.88;;
53261;SDS011;39658;51.090;-1.786;2023-03-21T10:35:19;3.90;;;0.75;;
53261;SDS011;39658;51.090;-1.786;2023-03-21T10:37:47;4.60;;;0.70;;
53261;SDS011;39658;51.090;-1.786;2023-03-21T10:40:14;1.52;;;0.52;;
53261;SDS011;39658;51.090;-1.786;2023-03-21T10:42:43;9.73;;;0.80;;
53261;SDS011;39658;51.090;-1.786;2023-03-21T10:45:14;4.57;;;0.70;;
53261;SDS011;39658;51.090;-1.786;2023-03-21T10:47:46;3.47;;;0.88;;
53261;SDS011;39658;51.090;-1.786;2023-03-21T10:50:15;3.50;;;0.95;;
53261;SDS011;39658;51.090;-1.786;2023-03-21T10:57:46;9.73;;;1.40;;
53261;SDS011;39658;51.090;-1.786;2023-03-21T11:00:17;9.65;;;1.30;;
53261;SDS011;39658;51.090;-1.786;2023-03-21T11:02:47;14.05;;;1.25;;
53261;SDS011;39658;51.090;-1.786;2023-03-21T11:05:18;6.85;;;1.15;;
53261;SDS011;39658;51.090;-1.786;2023-03-21T11:07:54;7.72;;;1.67;;
53261;SDS011;39658;51.090;-1.786;2023-03-21T11:10:26;10.35;;;1.70;;
53261;SDS011;39658;51.090;-1.786;2023-03-21T11:12:56;7.25;;;1.50;;
53261;SDS011;39658;51.090;-1.786;2023-03-21T11:15:27;13.25;;;1.95;;
53261;SDS011;39658;51.090;-1.786;2023-03-21T11:17:56;11.55;;;1.42;;
53261;SDS011;39658;51.090;-1.786;2023-03-21T11:20:23;7.45;;;1.00;;
53261;SDS011;39658;51.090;-1.786;2023-03-21T11:22:53;5.82;;;0.82;;
53261;SDS011;39658;51.090;-1.786;2023-03-21T11:25:21;7.35;;;1.13;;
53261;SDS011;39658;51.090;-1.786;2023-03-21T11:27:53;6.82;;;1.67;;
53261;SDS011;39658;51.090;-1.786;2023-03-21T11:30:22;15.32;;;1.40;;
53261;SDS011;39658;51.090;-1.786;2023-03-21T11:32:50;9.20;;;1.17;;
53261;SDS011;39658;51.090;-1.786;2023-03-21T11:35:21;10.20;;;1.50;;
53261;SDS011;39658;51.090;-1.786;2023-03-21T11:37:51;14.15;;;1.63;;
53261;SDS011;39658;51.090;-1.786;2023-03-21T11:40:19;12.60;;;1.67;;
53261;SDS011;39658;51.090;-1.786;2023-03-21T11:42:49;8.02;;;1.42;;
53261;SDS011;39658;51.090;-1.786;2023-03-21T11:45:17;8.75;;;1.30;;
53261;SDS011;39658;51.090;-1.786;2023-03-21T11:47:47;9.27;;;1.10;;
53261;SDS011;39658;51.090;-1.786;2023-03-21T11:50:20;8.95;;;0.95;;
53261;SDS011;39658;51.090;-1.786;2023-03-21T11:53:00;6.30;;;1.15;;
53261;SDS011;39658;51.090;-1.786;2023-03-21T11:55:40;11.52;;;1.10;;
53261;SDS011;39658;51.090;-1.786;2023-03-21T11:58:20;2.53;;;0.80;;
53261;SDS011;39658;51.090;-1.786;2023-03-21T12:00:58;5.80;;;1.60;;
53261;SDS011;39658;51.090;-1.786;2023-03-21T12:06:43;17.20;;;2.53;;
53261;SDS011;39658;51.090;-1.786;2023-03-21T12:09:25;9.27;;;1.30;;
53261;SDS011;39658;51.090;-1.786;2023-03-21T12:12:02;4.60;;;1.40;;
53261;SDS011;39658;51.090;-1.786;2023-03-21T12:14:45;5.90;;;1.35;;
53261;SDS011;39658;51.090;-1.786;2023-03-21T12:17:20;6.25;;;1.10;;
53261;SDS011;39658;51.090;-1.786;2023-03-21T12:20:02;14.85;;;1.48;;
53261;SDS011;39658;51.090;-1.786;2023-03-21T12:22:40;5.03;;;0.75;;
53261;SDS011;39658;51.090;-1.786;2023-03-21T12:25:19;7.13;;;1.10;;
53261;SDS011;39658;51.090;-1.786;2023-03-21T12:27:52;9.57;;;1.20;;
53261;SDS011;39658;51.090;-1.786;2023-03-21T12:30:36;4.78;;;0.82;;
53261;SDS011;39658;51.090;-1.786;2023-03-21T12:39:03;9.40;;;1.27;;
53261;SDS011;39658;51.090;-1.786;2023-03-21T12:41:48;6.07;;;0.90;;
53261;SDS011;39658;51.090;-1.786;2023-03-21T12:44:22;15.93;;;1.40;;
53261;SDS011;39658;51.090;-1.786;2023-03-21T12:46:56;7.32;;;1.30;;
53261;SDS011;39658;51.090;-1.786;2023-03-21T12:49:27;7.15;;;1.10;;
53261;SDS011;39658;51.090;-1.786;2023-03-21T12:52:00;7.10;;;1.05;;
53261;SDS011;39658;51.090;-1.786;2023-03-21T12:54:31;5.93;;;1.23;;
53261;SDS011;39658;51.090;-1.786;2023-03-21T12:57:03;9.75;;;2.20;;
53261;SDS011;39658;51.090;-1.786;2023-03-21T12:59:35;4.68;;;0.77;;
53261;SDS011;39658;51.090;-1.786;2023-03-21T13:02:12;6.65;;;1.05;;
53261;SDS011;39658;51.090;-1.786;2023-03-21T13:04:45;13.38;;;1.40;;
53261;SDS011;39658;51.090;-1.786;2023-03-21T13:07:23;7.50;;;1.00;;
53261;SDS011;39658;51.090;-1.786;2023-03-21T13:09:50;5.60;;;1.20;;
53261;SDS011;39658;51.090;-1.786;2023-03-21T13:12:29;7.45;;;1.30;;
53261;SDS011;39658;51.090;-1.786;2023-03-21T13:15:21;9.05;;;1.85;;
53261;SDS011;39658;51.090;-1.786;2023-03-21T13:18:00;11.98;;;1.65;;
53261;SDS011;39658;51.090;-1.786;2023-03-21T13:20:39;4.97;;;1.35;;
53261;SDS011;39658;51.090;-1.786;2023-03-21T13:23:11;8.88;;;1.60;;
53261;SDS011;39658;51.090;-1.786;2023-03-21T13:25:40;14.27;;;1.60;;
53261;SDS011;39658;51.090;-1.786;2023-03-21T13:28:15;14.73;;;1.75;;
53261;SDS011;39658;51.090;-1.786;2023-03-21T13:30:44;13.40;;;2.03;;
53261;SDS011;39658;51.090;-1.786;2023-03-21T13:33:13;9.82;;;1.67;;
53261;SDS011;39658;51.090;-1.786;2023-03-21T13:35:43;16.08;;;2.28;;
53261;SDS011;39658;51.090;-1.786;2023-03-21T13:38:13;14.50;;;1.70;;
53261;SDS011;39658;51.090;-1.786;2023-03-21T13:40:44;10.00;;;2.20;;
53261;SDS011;39658;51.090;-1.786;2023-03-21T13:46:05;15.95;;;1.88;;
53261;SDS011;39658;51.090;-1.786;2023-03-21T13:48:57;11.30;;;1.55;;
53261;SDS011;39658;51.090;-1.786;2023-03-21T13:51:43;11.82;;;1.92;;
53261;SDS011;39658;51.090;-1.786;2023-03-21T13:54:17;15.25;;;2.05;;
53261;SDS011;39658;51.090;-1.786;2023-03-21T13:56:49;12.93;;;1.85;;
53261;SDS011;39658;51.090;-1.786;2023-03-21T13:59:18;9.07;;;1.02;;
53261;SDS011;39658;51.090;-1.786;2023-03-21T14:02:03;16.85;;;2.28;;
53261;SDS011;39658;51.090;-1.786;2023-03-21T14:04:46;9.07;;;1.67;;
53261;SDS011;39658;51.090;-1.786;2023-03-21T14:07:22;19.60;;;3.70;;
53261;SDS011;39658;51.090;-1.786;2023-03-21T14:09:53;12.25;;;1.75;;
53261;SDS011;39658;51.090;-1.786;2023-03-21T14:12:25;6.78;;;1.05;;
53261;SDS011;39658;51.090;-1.786;2023-03-21T14:17:24;7.53;;;1.20;;
53261;SDS011;39658;51.090;-1.786;2023-03-21T14:19:53;13.77;;;2.50;;
53261;SDS011;39658;51.090;-1.786;2023-03-21T14:22:22;10.70;;;1.52;;
53261;SDS011;39658;51.090;-1.786;2023-03-21T14:24:55;13.60;;;2.28;;
53261;SDS011;39658;51.090;-1.786;2023-03-21T14:27:23;9.77;;;2.10;;
53261;SDS011;39658;51.090;-1.786;2023-03-21T14:32:21;11.60;;;1.35;;
53261;SDS011;39658;51.090;-1.786;2023-03-21T14:34:49;16.83;;;2.35;;
53261;SDS011;39658;51.090;-1.786;2023-03-21T14:37:27;18.42;;;2.25;;
53261;SDS011;39658;51.090;-1.786;2023-03-21T14:39:57;10.07;;;1.55;;
53261;SDS011;39658;51.090;-1.786;2023-03-21T14:42:26;11.48;;;1.85;;
53261;SDS011;39658;51.090;-1.786;2023-03-21T14:44:58;20.08;;;2.72;;
53261;SDS011;39658;51.090;-1.786;2023-03-21T14:47:28;18.83;;;2.08;;
53261;SDS011;39658;51.090;-1.786;2023-03-21T14:49:56;13.57;;;1.80;;
53261;SDS011;39658;51.090;-1.786;2023-03-21T14:52:26;20.00;;;3.25;;
53261;SDS011;39658;51.090;-1.786;2023-03-21T14:54:57;13.07;;;2.05;;
53261;SDS011;39658;51.090;-1.786;2023-03-21T14:57:26;8.27;;;1.40;;
53261;SDS011;39658;51.090;-1.786;2023-03-21T15:02:26;12.15;;;1.70;;
53261;SDS011;39658;51.090;-1.786;2023-03-21T15:04:57;11.70;;;2.03;;
53261;SDS011;39658;51.090;-1.786;2023-03-21T15:07:32;9.77;;;1.42;;
53261;SDS011;39658;51.090;-1.786;2023-03-21T15:10:03;10.48;;;1.15;;
53261;SDS011;39658;51.090;-1.786;2023-03-21T15:12:31;16.35;;;1.70;;
53261;SDS011;39658;51.090;-1.786;2023-03-21T15:14:58;9.98;;;1.60;;
53261;SDS011;39658;51.090;-1.786;2023-03-21T15:17:27;11.00;;;1.33;;
53261;SDS011;39658;51.090;-1.786;2023-03-21T15:19:54;15.98;;;2.28;;
53261;SDS011;39658;51.090;-1.786;2023-03-21T15:22:23;11.27;;;1.50;;
53261;SDS011;39658;51.090;-1.786;2023-03-21T15:24:56;6.88;;;1.02;;
53261;SDS011;39658;51.090;-1.786;2023-03-21T15:27:27;16.30;;;1.92;;
53261;SDS011;39658;51.090;-1.786;2023-03-21T15:29:57;14.13;;;1.65;;
53261;SDS011;39658;51.090;-1.786;2023-03-21T15:32:25;7.25;;;1.35;;
53261;SDS011;39658;51.090;-1.786;2023-03-21T15:34:53;5.93;;;1.20;;
53261;SDS011;39658;51.090;-1.786;2023-03-21T15:37:31;15.95;;;1.92;;